createdAt,value
2024-03-17T00:03:33.130Z,98912.29
2024-03-17T00:10:25.125Z,98919.30
2024-03-17T00:17:28.816Z,98923.73
2024-03-17T00:24:32.312Z,98935.39
2024-03-17T00:31:18.177Z,98951.88
2024-03-17T00:37:49.071Z,98954.26
2024-03-17T00:44:25.532Z,98953.23
2024-03-17T00:51:29.195Z,98952.30
2024-03-17T00:58:06.498Z,98956.95
2024-03-17T01:05:10.066Z,98970.98
2024-03-17T01:12:05.092Z,98979.36
2024-03-17T01:19:08.543Z,98981.30
2024-03-17T01:26:14.176Z,98988.20
2024-03-17T01:33:19.053Z,98980.55
2024-03-17T01:40:12.433Z,98979.30
2024-03-17T01:46:52.608Z,98989.95
2024-03-17T01:53:56.355Z,98993.27
2024-03-17T02:00:59.999Z,98997.11
2024-03-17T02:07:54.390Z,99005.48
2024-03-17T02:14:57.940Z,99000.75
2024-03-17T02:21:54.702Z,98988.83
2024-03-17T02:28:58.269Z,98988.72
2024-03-17T02:36:01.732Z,99001.04
2024-03-17T02:42:47.651Z,99004.83
2024-03-17T02:49:56.997Z,99016.15
2024-03-17T02:57:00.598Z,99037.20
2024-03-17T03:03:54.742Z,99044.59
2024-03-17T03:10:58.383Z,99046.50
2024-03-17T03:17:52.803Z,99053.49
2024-03-17T03:24:56.367Z,99062.17
2024-03-17T03:32:02.850Z,99064.02
2024-03-17T03:39:06.279Z,99078.28
2024-03-17T03:46:09.921Z,99079.10
2024-03-17T03:53:13.440Z,99087.38
2024-03-17T04:05:29.487Z,99102.62
2024-03-17T04:11:31.410Z,99107.69
2024-03-17T04:17:53.034Z,99112.07
2024-03-17T04:23:14.901Z,99109.84
2024-03-17T04:29:04.298Z,99114.89
2024-03-17T04:34:07.345Z,99120.69
2024-03-17T04:40:09.166Z,99124.26
2024-03-17T04:46:30.825Z,99131.42
2024-03-17T04:52:52.432Z,99138.21
2024-03-17T04:58:34.796Z,99143.11
2024-03-17T05:04:36.647Z,99141.39
2024-03-17T05:10:58.405Z,99146.78
2024-03-17T05:17:20.147Z,99149.15
2024-03-17T05:22:42.393Z,99150.17
2024-03-17T05:28:44.138Z,99158.66
2024-03-17T05:34:08.396Z,99157.98
2024-03-17T05:39:10.193Z,99166.34
2024-03-17T05:44:19.849Z,99166.20
2024-03-17T05:50:21.495Z,99164.06
2024-03-17T05:56:43.178Z,99162.95
2024-03-17T06:03:04.850Z,99165.59
2024-03-17T06:09:26.556Z,99174.33
2024-03-17T06:15:48.305Z,99180.97
2024-03-17T06:21:10.655Z,99183.83
2024-03-17T06:26:13.834Z,99187.75
2024-03-17T06:31:16.834Z,99199.98
2024-03-17T06:36:18.786Z,99196.68
2024-03-17T06:41:20.840Z,99196.05
2024-03-17T06:47:22.632Z,99190.63
2024-03-17T06:53:54.438Z,99193.11
2024-03-17T07:00:16.082Z,99197.84
2024-03-17T07:06:37.773Z,99200.52
2024-03-17T07:12:59.457Z,99202.61
2024-03-17T07:19:21.035Z,99203.02
2024-03-17T07:25:44.335Z,99199.13
2024-03-17T07:32:06.332Z,99201.21
2024-03-17T07:37:35.865Z,99215.78
2024-03-17T07:43:37.543Z,99218.23
2024-03-17T07:49:59.188Z,99222.30
2024-03-17T07:56:20.827Z,99219.86
2024-03-17T08:01:42.862Z,99221.23
2024-03-17T08:06:45.473Z,99225.56
2024-03-17T08:11:48.046Z,99220.63
2024-03-17T08:17:49.891Z,99219.45
2024-03-17T08:24:11.643Z,99215.35
2024-03-17T08:30:33.245Z,99203.84
2024-03-17T08:36:15.044Z,99208.92
2024-03-17T08:42:36.659Z,99210.55
2024-03-17T08:48:58.404Z,99198.95
2024-03-17T08:55:20.142Z,99188.36
2024-03-17T09:01:44.368Z,99192.34
2024-03-17T09:07:06.586Z,99196.63
2024-03-17T09:12:18.648Z,99195.61
2024-03-17T09:18:20.468Z,99188.98
2024-03-17T09:24:42.104Z,99184.95
2024-03-17T09:30:10.459Z,99186.90
2024-03-17T09:35:12.470Z,99187.04
2024-03-17T09:40:17.348Z,99189.63
2024-03-17T09:45:59.131Z,99189.74
2024-03-17T09:52:00.845Z,99177.31
2024-03-17T09:58:22.579Z,99169.01
2024-03-17T10:04:47.290Z,99175.39
2024-03-17T10:10:13.826Z,99172.87
2024-03-17T10:15:17.967Z,99165.67
2024-03-17T10:20:24.795Z,99163.58
2024-03-17T10:25:31.204Z,99169.92
2024-03-17T10:30:33.749Z,99169.73
2024-03-17T10:36:41.276Z,99166.73
2024-03-17T10:42:05.261Z,99160.98
2024-03-17T10:48:06.985Z,99156.56
2024-03-17T10:53:29.082Z,99158.82
2024-03-17T10:59:40.608Z,99155.36
2024-03-17T11:05:07.436Z,99150.95
2024-03-17T11:10:12.830Z,99151.61
2024-03-17T11:15:29.369Z,99145.95
2024-03-17T11:21:44.050Z,99140.84
2024-03-17T11:28:20.487Z,99138.66
2024-03-17T11:34:27.940Z,99124.73
2024-03-17T11:41:08.241Z,99116.44
2024-03-17T11:47:38.469Z,99120.19
2024-03-17T11:54:00.094Z,99108.38
2024-03-17T11:59:23.574Z,99086.73
2024-03-17T12:05:25.298Z,99086.98
2024-03-17T12:11:50.065Z,99086.14
2024-03-17T12:18:11.753Z,99085.20
2024-03-17T12:24:33.418Z,99085.69
2024-03-17T12:30:55.056Z,99075.76
2024-03-17T12:37:16.680Z,99067.63
2024-03-17T12:43:18.392Z,99066.90
2024-03-17T12:49:20.110Z,99056.89
2024-03-17T12:54:47.177Z,99050.83
2024-03-17T13:00:07.517Z,99048.50
2024-03-17T13:05:19.597Z,99045.67
2024-03-17T13:10:21.615Z,99037.45
2024-03-17T13:15:23.756Z,99036.20
2024-03-17T13:20:26.143Z,99033.33
2024-03-17T13:25:37.699Z,99034.55
2024-03-17T13:30:40.943Z,99037.52
2024-03-17T13:35:42.935Z,99035.04
2024-03-17T13:40:47.223Z,99032.92
2024-03-17T13:45:50.763Z,99031.20
2024-03-17T13:50:52.827Z,99024.62
2024-03-17T13:55:55.133Z,99022.33
2024-03-17T14:01:07.119Z,99017.14
2024-03-17T14:06:15.923Z,99017.02
2024-03-17T14:12:17.729Z,99019.13
2024-03-17T14:18:39.496Z,99017.51
2024-03-17T14:25:01.202Z,99017.34
2024-03-17T14:31:22.778Z,99013.08
2024-03-17T14:36:45.565Z,99008.72
2024-03-17T14:41:47.597Z,99004.42
2024-03-17T14:46:53.284Z,99004.30
2024-03-17T14:52:55.029Z,99005.36
2024-03-17T14:58:16.895Z,99014.21
2024-03-17T15:03:19.904Z,99017.48
2024-03-17T15:08:22.062Z,99017.91
2024-03-17T15:13:25.171Z,99015.12
2024-03-17T15:18:27.904Z,99013.55
2024-03-17T15:23:32.993Z,99019.39
2024-03-17T15:28:44.686Z,99013.85
2024-03-17T15:33:46.701Z,99005.33
2024-03-17T15:38:48.640Z,99007.30
2024-03-17T15:43:51.809Z,99008.20
2024-03-17T15:48:53.996Z,99012.66
2024-03-17T15:53:55.939Z,99011.80
2024-03-17T15:58:58.075Z,99011.62
2024-03-17T16:04:00.287Z,99012.52
2024-03-17T16:09:02.618Z,99012.86
2024-03-17T16:15:04.317Z,99014.28
2024-03-17T16:21:27.960Z,99017.44
2024-03-17T16:27:49.672Z,99017.50
2024-03-17T16:33:13.662Z,99016.10
2024-03-17T16:38:17.486Z,99023.50
2024-03-17T16:43:47.350Z,99027.80
2024-03-17T16:48:50.411Z,99038.20
2024-03-17T16:53:52.370Z,99044.09
2024-03-17T16:58:54.325Z,99040.71
2024-03-17T17:03:57.407Z,99042.89
2024-03-17T17:08:59.463Z,99047.65
2024-03-17T17:14:01.424Z,99056.82
2024-03-17T17:19:08.213Z,99054.35
2024-03-17T17:24:20.207Z,99055.45
2024-03-17T17:29:22.285Z,99066.98
2024-03-17T17:34:24.496Z,99063.64
2024-03-17T17:39:26.739Z,99067.12
2024-03-17T17:44:29.018Z,99066.67
2024-03-17T17:49:31.116Z,99067.91
2024-03-17T17:54:33.688Z,99064.88
2024-03-17T17:59:37.518Z,99066.94
2024-03-17T18:04:39.427Z,99065.28
2024-03-17T18:09:41.355Z,99067.68
2024-03-17T18:14:43.447Z,99063.27
2024-03-17T18:19:46.084Z,99061.06
2024-03-17T18:24:49.094Z,99059.56
2024-03-17T18:29:51.002Z,99061.48
2024-03-17T18:34:52.989Z,99053.85
2024-03-17T18:39:55.194Z,99061.72
2024-03-17T18:44:57.190Z,99062.23
2024-03-17T18:49:59.362Z,99063.80
2024-03-17T18:55:01.442Z,99057.17
2024-03-17T19:00:04.633Z,99052.25
2024-03-17T19:05:07.193Z,99053.63
2024-03-17T19:10:10.398Z,99049.38
2024-03-17T19:15:14.802Z,99055.52
2024-03-17T19:20:22.421Z,99056.73
2024-03-17T19:25:27.057Z,99055.20
2024-03-17T19:30:29.245Z,99061.52
2024-03-17T19:35:32.470Z,99060.67
2024-03-17T19:40:34.600Z,99065.10
2024-03-17T19:45:36.668Z,99065.46
2024-03-17T19:50:38.996Z,99066.48
2024-03-17T19:55:50.907Z,99064.80
2024-03-17T20:00:55.527Z,99069.76
2024-03-17T20:05:59.261Z,99067.89
2024-03-17T20:11:01.757Z,99068.59
2024-03-17T20:16:05.225Z,99062.30
2024-03-17T20:21:07.230Z,99065.37
2024-03-17T20:27:08.980Z,99063.67
2024-03-17T20:33:33.217Z,99063.35
2024-03-17T20:39:54.866Z,99057.23
2024-03-17T20:46:16.535Z,99055.70
2024-03-17T20:51:46.997Z,99061.84
2024-03-17T21:03:37.617Z,99065.06
2024-03-17T21:08:39.867Z,99062.51
2024-03-17T21:13:41.889Z,99068.12
2024-03-17T21:18:43.858Z,99068.13
2024-03-17T21:24:45.584Z,99062.34
2024-03-17T21:31:07.385Z,99061.48
2024-03-17T21:37:29.122Z,99060.29
2024-03-17T21:42:51.440Z,99058.41
2024-03-17T21:47:53.431Z,99053.48
2024-03-17T21:52:55.760Z,99049.73
2024-03-17T21:57:58.061Z,99046.86
2024-03-17T22:03:59.878Z,99046.51
2024-03-17T22:10:21.496Z,99039.04
2024-03-17T22:15:43.494Z,99031.55
2024-03-17T22:20:58.602Z,99028.31
2024-03-17T22:26:02.316Z,99031.20
2024-03-17T22:32:04.065Z,99030.02
2024-03-17T22:37:25.918Z,99029.81
2024-03-17T22:43:27.607Z,99026.59
2024-03-17T22:49:49.369Z,99021.65
2024-03-17T22:56:10.953Z,99013.32
2024-03-17T23:02:33.003Z,99015.84
2024-03-17T23:07:54.957Z,99017.52
2024-03-17T23:12:56.917Z,99012.92
2024-03-17T23:18:58.661Z,99011.39
2024-03-17T23:25:20.370Z,99009.85
2024-03-17T23:31:41.996Z,99005.08
2024-03-17T23:38:03.690Z,99002.35
2024-03-17T23:43:25.768Z,99003.86
2024-03-17T23:49:27.510Z,99002.15
2024-03-17T23:55:49.172Z,98996.18
